sensor_id;sensor_type;location;lat;lon;timestamp;P1;durP1;ratioP1;P2;durP2;ratioP2
10825;SDS011;5466;55.898;14.094;2023-12-14T00:00:45;6.30;;;4.70;;
10825;SDS011;5466;55.898;14.094;2023-12-14T00:02:45;6.43;;;4.97;;
10825;SDS011;5466;55.898;14.094;2023-12-14T00:04:46;6.10;;;4.77;;
10825;SDS011;5466;55.898;14.094;2023-12-14T00:06:47;7.37;;;5.20;;
10825;SDS011;5466;55.898;14.094;2023-12-14T00:08:47;8.00;;;5.03;;
10825;SDS011;5466;55.898;14.094;2023-12-14T00:10:48;9.03;;;4.43;;
10825;SDS011;5466;55.898;14.094;2023-12-14T00:12:50;6.67;;;5.07;;
10825;SDS011;5466;55.898;14.094;2023-12-14T00:14:51;6.67;;;4.50;;
10825;SDS011;5466;55.898;14.094;2023-12-14T00:16:51;5.87;;;4.83;;
10825;SDS011;5466;55.898;14.094;2023-12-14T00:18:52;5.50;;;4.83;;
10825;SDS011;5466;55.898;14.094;2023-12-14T00:20:53;5.20;;;4.50;;
10825;SDS011;5466;55.898;14.094;2023-12-14T00:22:54;5.63;;;4.20;;
10825;SDS011;5466;55.898;14.094;2023-12-14T00:24:54;5.60;;;4.23;;
10825;SDS011;5466;55.898;14.094;2023-12-14T00:26:55;4.93;;;4.43;;
10825;SDS011;5466;55.898;14.094;2023-12-14T00:28:55;6.30;;;4.20;;
10825;SDS011;5466;55.898;14.094;2023-12-14T00:30:56;6.33;;;4.60;;
10825;SDS011;5466;55.898;14.094;2023-12-14T00:32:57;6.00;;;4.73;;
10825;SDS011;5466;55.898;14.094;2023-12-14T00:34:58;5.23;;;4.50;;
10825;SDS011;5466;55.898;14.094;2023-12-14T00:36:58;6.33;;;4.73;;
10825;SDS011;5466;55.898;14.094;2023-12-14T00:38:59;5.20;;;4.33;;
10825;SDS011;5466;55.898;14.094;2023-12-14T00:40:59;5.43;;;4.00;;
10825;SDS011;5466;55.898;14.094;2023-12-14T00:43:00;5.97;;;4.80;;
10825;SDS011;5466;55.898;14.094;2023-12-14T00:45:01;5.80;;;4.70;;
10825;SDS011;5466;55.898;14.094;2023-12-14T00:47:01;5.40;;;4.67;;
10825;SDS011;5466;55.898;14.094;2023-12-14T00:49:02;5.67;;;4.13;;
10825;SDS011;5466;55.898;14.094;2023-12-14T00:51:03;6.13;;;4.43;;
10825;SDS011;5466;55.898;14.094;2023-12-14T00:53:04;4.80;;;4.30;;
10825;SDS011;5466;55.898;14.094;2023-12-14T00:55:05;5.90;;;4.23;;
10825;SDS011;5466;55.898;14.094;2023-12-14T00:57:05;5.27;;;4.30;;
10825;SDS011;5466;55.898;14.094;2023-12-14T00:59:06;4.83;;;4.33;;
10825;SDS011;5466;55.898;14.094;2023-12-14T01:01:07;4.97;;;4.00;;
10825;SDS011;5466;55.898;14.094;2023-12-14T01:03:07;5.60;;;4.60;;
10825;SDS011;5466;55.898;14.094;2023-12-14T01:05:08;4.87;;;4.10;;
10825;SDS011;5466;55.898;14.094;2023-12-14T01:07:09;5.10;;;4.30;;
10825;SDS011;5466;55.898;14.094;2023-12-14T01:09:10;5.93;;;4.37;;
10825;SDS011;5466;55.898;14.094;2023-12-14T01:11:10;5.00;;;4.50;;
10825;SDS011;5466;55.898;14.094;2023-12-14T01:13:11;6.43;;;4.67;;
10825;SDS011;5466;55.898;14.094;2023-12-14T01:15:12;4.70;;;4.20;;
10825;SDS011;5466;55.898;14.094;2023-12-14T01:17:12;5.23;;;4.17;;
10825;SDS011;5466;55.898;14.094;2023-12-14T01:19:13;4.87;;;4.30;;
10825;SDS011;5466;55.898;14.094;2023-12-14T01:21:14;6.00;;;4.50;;
10825;SDS011;5466;55.898;14.094;2023-12-14T01:23:15;5.30;;;4.57;;
10825;SDS011;5466;55.898;14.094;2023-12-14T01:25:15;5.47;;;4.10;;
10825;SDS011;5466;55.898;14.094;2023-12-14T01:27:16;4.97;;;4.20;;
10825;SDS011;5466;55.898;14.094;2023-12-14T01:29:17;4.30;;;3.90;;
10825;SDS011;5466;55.898;14.094;2023-12-14T01:31:17;6.80;;;4.43;;
10825;SDS011;5466;55.898;14.094;2023-12-14T01:33:18;4.27;;;3.87;;
10825;SDS011;5466;55.898;14.094;2023-12-14T01:35:19;4.30;;;3.90;;
10825;SDS011;5466;55.898;14.094;2023-12-14T01:37:20;5.07;;;4.13;;
10825;SDS011;5466;55.898;14.094;2023-12-14T01:39:21;4.73;;;4.23;;
10825;SDS011;5466;55.898;14.094;2023-12-14T01:41:21;4.37;;;3.97;;
10825;SDS011;5466;55.898;14.094;2023-12-14T01:43:22;5.47;;;4.37;;
10825;SDS011;5466;55.898;14.094;2023-12-14T01:45:22;4.77;;;4.17;;
10825;SDS011;5466;55.898;14.094;2023-12-14T01:47:23;4.90;;;4.20;;
10825;SDS011;5466;55.898;14.094;2023-12-14T01:49:24;5.23;;;4.17;;
10825;SDS011;5466;55.898;14.094;2023-12-14T01:51:24;4.30;;;3.60;;
10825;SDS011;5466;55.898;14.094;2023-12-14T01:53:25;5.10;;;4.30;;
10825;SDS011;5466;55.898;14.094;2023-12-14T01:55:26;5.53;;;4.30;;
10825;SDS011;5466;55.898;14.094;2023-12-14T01:57:27;4.97;;;3.97;;
10825;SDS011;5466;55.898;14.094;2023-12-14T01:59:28;4.27;;;3.63;;
10825;SDS011;5466;55.898;14.094;2023-12-14T02:01:33;4.17;;;3.77;;
10825;SDS011;5466;55.898;14.094;2023-12-14T02:03:45;4.10;;;3.70;;
10825;SDS011;5466;55.898;14.094;2023-12-14T02:05:46;6.10;;;3.90;;
10825;SDS011;5466;55.898;14.094;2023-12-14T02:07:46;4.07;;;3.40;;
10825;SDS011;5466;55.898;14.094;2023-12-14T02:09:47;3.70;;;3.40;;
10825;SDS011;5466;55.898;14.094;2023-12-14T02:11:50;3.90;;;3.50;;
10825;SDS011;5466;55.898;14.094;2023-12-14T02:13:51;3.80;;;3.40;;
10825;SDS011;5466;55.898;14.094;2023-12-14T02:15:51;4.63;;;3.87;;
10825;SDS011;5466;55.898;14.094;2023-12-14T02:17:53;4.00;;;3.60;;
10825;SDS011;5466;55.898;14.094;2023-12-14T02:19:54;4.10;;;3.70;;
10825;SDS011;5466;55.898;14.094;2023-12-14T02:21:54;4.00;;;3.30;;
10825;SDS011;5466;55.898;14.094;2023-12-14T02:23:55;4.43;;;3.90;;
10825;SDS011;5466;55.898;14.094;2023-12-14T02:25:56;4.57;;;3.83;;
10825;SDS011;5466;55.898;14.094;2023-12-14T02:27:56;4.50;;;3.37;;
10825;SDS011;5466;55.898;14.094;2023-12-14T02:29:57;3.97;;;3.50;;
10825;SDS011;5466;55.898;14.094;2023-12-14T02:31:58;4.37;;;3.83;;
10825;SDS011;5466;55.898;14.094;2023-12-14T02:33:58;5.97;;;4.10;;
10825;SDS011;5466;55.898;14.094;2023-12-14T02:35:59;4.40;;;3.63;;
10825;SDS011;5466;55.898;14.094;2023-12-14T02:38:00;4.60;;;3.80;;
10825;SDS011;5466;55.898;14.094;2023-12-14T02:40:00;4.10;;;3.70;;
10825;SDS011;5466;55.898;14.094;2023-12-14T02:42:01;4.40;;;3.73;;
10825;SDS011;5466;55.898;14.094;2023-12-14T02:44:02;4.43;;;3.93;;
10825;SDS011;5466;55.898;14.094;2023-12-14T02:46:02;4.30;;;3.67;;
10825;SDS011;5466;55.898;14.094;2023-12-14T02:48:04;5.40;;;3.73;;
10825;SDS011;5466;55.898;14.094;2023-12-14T02:50:05;3.97;;;3.50;;
10825;SDS011;5466;55.898;14.094;2023-12-14T02:52:06;4.50;;;3.77;;
10825;SDS011;5466;55.898;14.094;2023-12-14T02:54:06;6.60;;;4.30;;
10825;SDS011;5466;55.898;14.094;2023-12-14T02:56:08;4.73;;;3.90;;
10825;SDS011;5466;55.898;14.094;2023-12-14T02:58:09;4.17;;;3.70;;
10825;SDS011;5466;55.898;14.094;2023-12-14T03:00:10;3.80;;;3.43;;
10825;SDS011;5466;55.898;14.094;2023-12-14T03:02:11;4.07;;;3.67;;
10825;SDS011;5466;55.898;14.094;2023-12-14T03:04:12;4.63;;;3.73;;
10825;SDS011;5466;55.898;14.094;2023-12-14T03:06:12;4.13;;;3.73;;
10825;SDS011;5466;55.898;14.094;2023-12-14T03:08:13;3.83;;;3.47;;
10825;SDS011;5466;55.898;14.094;2023-12-14T03:10:14;4.90;;;3.70;;
10825;SDS011;5466;55.898;14.094;2023-12-14T03:12:14;4.67;;;4.00;;
10825;SDS011;5466;55.898;14.094;2023-12-14T03:14:15;4.17;;;3.60;;
10825;SDS011;5466;55.898;14.094;2023-12-14T03:16:15;4.73;;;3.63;;
10825;SDS011;5466;55.898;14.094;2023-12-14T03:18:19;3.63;;;3.33;;
10825;SDS011;5466;55.898;14.094;2023-12-14T03:20:20;6.20;;;3.90;;
10825;SDS011;5466;55.898;14.094;2023-12-14T03:22:21;4.97;;;3.60;;
10825;SDS011;5466;55.898;14.094;2023-12-14T03:24:21;3.50;;;3.20;;
10825;SDS011;5466;55.898;14.094;2023-12-14T03:26:22;5.77;;;3.50;;
10825;SDS011;5466;55.898;14.094;2023-12-14T03:28:22;3.90;;;3.27;;
10825;SDS011;5466;55.898;14.094;2023-12-14T03:30:23;4.00;;;3.60;;
10825;SDS011;5466;55.898;14.094;2023-12-14T03:32:24;3.63;;;3.00;;
10825;SDS011;5466;55.898;14.094;2023-12-14T03:34:24;3.37;;;3.07;;
10825;SDS011;5466;55.898;14.094;2023-12-14T03:36:25;4.03;;;3.27;;
10825;SDS011;5466;55.898;14.094;2023-12-14T03:38:27;6.47;;;3.60;;
10825;SDS011;5466;55.898;14.094;2023-12-14T03:40:28;3.97;;;3.13;;
10825;SDS011;5466;55.898;14.094;2023-12-14T03:42:28;3.40;;;3.10;;
10825;SDS011;5466;55.898;14.094;2023-12-14T03:44:29;3.43;;;2.87;;
10825;SDS011;5466;55.898;14.094;2023-12-14T03:46:29;4.10;;;3.53;;
10825;SDS011;5466;55.898;14.094;2023-12-14T03:48:30;3.57;;;3.17;;
10825;SDS011;5466;55.898;14.094;2023-12-14T03:50:31;3.90;;;3.20;;
10825;SDS011;5466;55.898;14.094;2023-12-14T03:52:32;4.80;;;2.93;;
10825;SDS011;5466;55.898;14.094;2023-12-14T03:54:33;3.63;;;3.33;;
10825;SDS011;5466;55.898;14.094;2023-12-14T03:56:34;3.73;;;3.30;;
10825;SDS011;5466;55.898;14.094;2023-12-14T03:58:35;3.20;;;2.90;;
10825;SDS011;5466;55.898;14.094;2023-12-14T04:00:35;3.50;;;3.13;;
10825;SDS011;5466;55.898;14.094;2023-12-14T04:02:36;3.30;;;2.90;;
10825;SDS011;5466;55.898;14.094;2023-12-14T04:04:37;3.33;;;3.00;;
10825;SDS011;5466;55.898;14.094;2023-12-14T04:06:37;3.60;;;2.83;;
10825;SDS011;5466;55.898;14.094;2023-12-14T04:08:38;3.13;;;2.83;;
10825;SDS011;5466;55.898;14.094;2023-12-14T04:10:40;4.63;;;3.10;;
10825;SDS011;5466;55.898;14.094;2023-12-14T04:12:41;3.70;;;3.00;;
10825;SDS011;5466;55.898;14.094;2023-12-14T04:14:42;3.73;;;2.90;;
10825;SDS011;5466;55.898;14.094;2023-12-14T04:16:43;3.33;;;2.70;;
10825;SDS011;5466;55.898;14.094;2023-12-14T04:18:43;2.90;;;2.60;;
10825;SDS011;5466;55.898;14.094;2023-12-14T04:20:44;3.30;;;3.00;;
10825;SDS011;5466;55.898;14.094;2023-12-14T04:22:45;3.30;;;2.73;;
10825;SDS011;5466;55.898;14.094;2023-12-14T04:24:45;3.40;;;3.10;;
10825;SDS011;5466;55.898;14.094;2023-12-14T04:26:46;3.67;;;2.80;;
10825;SDS011;5466;55.898;14.094;2023-12-14T04:28:46;8.33;;;2.53;;
10825;SDS011;5466;55.898;14.094;2023-12-14T04:30:47;3.47;;;3.17;;
10825;SDS011;5466;55.898;14.094;2023-12-14T04:32:48;3.40;;;2.60;;
10825;SDS011;5466;55.898;14.094;2023-12-14T04:34:49;3.20;;;2.90;;
10825;SDS011;5466;55.898;14.094;2023-12-14T04:36:49;2.90;;;2.60;;
10825;SDS011;5466;55.898;14.094;2023-12-14T04:38:50;3.57;;;2.77;;
10825;SDS011;5466;55.898;14.094;2023-12-14T04:40:50;3.53;;;2.73;;
10825;SDS011;5466;55.898;14.094;2023-12-14T04:42:51;2.80;;;2.50;;
10825;SDS011;5466;55.898;14.094;2023-12-14T04:44:52;4.30;;;3.00;;
10825;SDS011;5466;55.898;14.094;2023-12-14T04:46:52;2.43;;;2.23;;
10825;SDS011;5466;55.898;14.094;2023-12-14T04:48:53;4.03;;;2.80;;
10825;SDS011;5466;55.898;14.094;2023-12-14T04:50:54;3.80;;;2.70;;
10825;SDS011;5466;55.898;14.094;2023-12-14T04:52:55;3.13;;;2.67;;
10825;SDS011;5466;55.898;14.094;2023-12-14T04:54:55;2.97;;;2.60;;
10825;SDS011;5466;55.898;14.094;2023-12-14T04:56:56;3.13;;;2.80;;
10825;SDS011;5466;55.898;14.094;2023-12-14T04:58:56;3.93;;;3.20;;
10825;SDS011;5466;55.898;14.094;2023-12-14T05:00:58;3.40;;;2.53;;
10825;SDS011;5466;55.898;14.094;2023-12-14T05:02:59;3.13;;;2.73;;
10825;SDS011;5466;55.898;14.094;2023-12-14T05:04:59;2.90;;;2.60;;
10825;SDS011;5466;55.898;14.094;2023-12-14T05:07:00;3.77;;;3.10;;
10825;SDS011;5466;55.898;14.094;2023-12-14T05:09:01;3.43;;;3.03;;
10825;SDS011;5466;55.898;14.094;2023-12-14T05:11:04;3.93;;;2.70;;
10825;SDS011;5466;55.898;14.094;2023-12-14T05:13:05;3.93;;;2.83;;
10825;SDS011;5466;55.898;14.094;2023-12-14T05:15:07;2.67;;;2.47;;
10825;SDS011;5466;55.898;14.094;2023-12-14T05:17:09;2.93;;;2.63;;
10825;SDS011;5466;55.898;14.094;2023-12-14T05:19:09;3.83;;;2.97;;
10825;SDS011;5466;55.898;14.094;2023-12-14T05:21:15;4.83;;;2.83;;
10825;SDS011;5466;55.898;14.094;2023-12-14T05:23:17;3.33;;;3.03;;
10825;SDS011;5466;55.898;14.094;2023-12-14T05:25:18;3.73;;;3.03;;
10825;SDS011;5466;55.898;14.094;2023-12-14T05:27:18;3.63;;;3.10;;
10825;SDS011;5466;55.898;14.094;2023-12-14T05:29:20;6.03;;;2.80;;
10825;SDS011;5466;55.898;14.094;2023-12-14T05:31:21;3.43;;;3.13;;
10825;SDS011;5466;55.898;14.094;2023-12-14T05:33:22;3.63;;;3.00;;
10825;SDS011;5466;55.898;14.094;2023-12-14T05:35:23;2.73;;;2.50;;
10825;SDS011;5466;55.898;14.094;2023-12-14T05:37:23;3.40;;;3.00;;
10825;SDS011;5466;55.898;14.094;2023-12-14T05:39:24;3.47;;;2.87;;
10825;SDS011;5466;55.898;14.094;2023-12-14T05:41:24;4.73;;;2.60;;
10825;SDS011;5466;55.898;14.094;2023-12-14T05:43:25;4.27;;;3.33;;
10825;SDS011;5466;55.898;14.094;2023-12-14T05:45:26;3.17;;;2.87;;
10825;SDS011;5466;55.898;14.094;2023-12-14T05:47:26;3.87;;;3.13;;
10825;SDS011;5466;55.898;14.094;2023-12-14T05:49:27;3.47;;;2.83;;
10825;SDS011;5466;55.898;14.094;2023-12-14T05:51:28;3.77;;;3.20;;
10825;SDS011;5466;55.898;14.094;2023-12-14T05:53:32;5.13;;;3.33;;
10825;SDS011;5466;55.898;14.094;2023-12-14T05:55:36;4.37;;;3.40;;
10825;SDS011;5466;55.898;14.094;2023-12-14T05:57:38;3.10;;;2.80;;
10825;SDS011;5466;55.898;14.094;2023-12-14T05:59:39;3.47;;;2.80;;
10825;SDS011;5466;55.898;14.094;2023-12-14T06:01:39;3.40;;;3.10;;
10825;SDS011;5466;55.898;14.094;2023-12-14T06:03:40;2.93;;;2.67;;
10825;SDS011;5466;55.898;14.094;2023-12-14T06:05:40;3.43;;;3.13;;
10825;SDS011;5466;55.898;14.094;2023-12-14T06:07:41;3.23;;;2.93;;
10825;SDS011;5466;55.898;14.094;2023-12-14T06:09:42;3.10;;;2.80;;
10825;SDS011;5466;55.898;14.094;2023-12-14T06:11:43;3.83;;;3.40;;
10825;SDS011;5466;55.898;14.094;2023-12-14T06:13:43;3.33;;;2.93;;
10825;SDS011;5466;55.898;14.094;2023-12-14T06:15:44;2.77;;;2.57;;
10825;SDS011;5466;55.898;14.094;2023-12-14T06:17:44;3.40;;;3.10;;
10825;SDS011;5466;55.898;14.094;2023-12-14T06:19:45;4.43;;;3.17;;
10825;SDS011;5466;55.898;14.094;2023-12-14T06:21:46;5.13;;;3.17;;
10825;SDS011;5466;55.898;14.094;2023-12-14T06:23:47;3.37;;;2.97;;
10825;SDS011;5466;55.898;14.094;2023-12-14T06:25:47;4.03;;;3.10;;
10825;SDS011;5466;55.898;14.094;2023-12-14T06:27:48;3.43;;;3.00;;
10825;SDS011;5466;55.898;14.094;2023-12-14T06:29:49;3.10;;;2.80;;
10825;SDS011;5466;55.898;14.094;2023-12-14T06:31:50;3.73;;;2.67;;
10825;SDS011;5466;55.898;14.094;2023-12-14T06:33:51;3.37;;;3.07;;
10825;SDS011;5466;55.898;14.094;2023-12-14T06:35:51;3.43;;;3.10;;
10825;SDS011;5466;55.898;14.094;2023-12-14T06:37:52;4.83;;;3.50;;
10825;SDS011;5466;55.898;14.094;2023-12-14T06:39:52;4.63;;;3.70;;
10825;SDS011;5466;55.898;14.094;2023-12-14T06:41:53;3.70;;;3.20;;
10825;SDS011;5466;55.898;14.094;2023-12-14T06:43:54;3.83;;;3.30;;
10825;SDS011;5466;55.898;14.094;2023-12-14T06:45:55;4.70;;;3.70;;
10825;SDS011;5466;55.898;14.094;2023-12-14T06:47:56;4.10;;;3.40;;
10825;SDS011;5466;55.898;14.094;2023-12-14T06:49:56;5.07;;;3.73;;
10825;SDS011;5466;55.898;14.094;2023-12-14T06:51:57;3.77;;;3.43;;
10825;SDS011;5466;55.898;14.094;2023-12-14T06:53:58;4.07;;;3.40;;
10825;SDS011;5466;55.898;14.094;2023-12-14T06:55:58;3.37;;;3.07;;
10825;SDS011;5466;55.898;14.094;2023-12-14T06:57:59;5.40;;;3.53;;
10825;SDS011;5466;55.898;14.094;2023-12-14T06:59:59;4.30;;;3.67;;
10825;SDS011;5466;55.898;14.094;2023-12-14T07:02:00;4.20;;;3.43;;
10825;SDS011;5466;55.898;14.094;2023-12-14T07:04:01;3.43;;;3.13;;
10825;SDS011;5466;55.898;14.094;2023-12-14T07:06:03;3.83;;;3.43;;
10825;SDS011;5466;55.898;14.094;2023-12-14T07:08:04;3.50;;;3.10;;
10825;SDS011;5466;55.898;14.094;2023-12-14T07:10:05;4.63;;;3.20;;
10825;SDS011;5466;55.898;14.094;2023-12-14T07:12:06;4.20;;;3.23;;
10825;SDS011;5466;55.898;14.094;2023-12-14T07:14:08;4.53;;;3.40;;
10825;SDS011;5466;55.898;14.094;2023-12-14T07:16:09;3.30;;;3.00;;
10825;SDS011;5466;55.898;14.094;2023-12-14T07:18:10;5.27;;;3.37;;
10825;SDS011;5466;55.898;14.094;2023-12-14T07:20:11;4.10;;;3.53;;
10825;SDS011;5466;55.898;14.094;2023-12-14T07:22:12;4.03;;;3.33;;
10825;SDS011;5466;55.898;14.094;2023-12-14T07:24:13;3.93;;;3.53;;
10825;SDS011;5466;55.898;14.094;2023-12-14T07:26:13;5.47;;;2.87;;
10825;SDS011;5466;55.898;14.094;2023-12-14T07:28:14;3.97;;;3.53;;
10825;SDS011;5466;55.898;14.094;2023-12-14T07:30:14;3.50;;;3.20;;
10825;SDS011;5466;55.898;14.094;2023-12-14T07:32:15;3.77;;;3.27;;
10825;SDS011;5466;55.898;14.094;2023-12-14T07:34:16;3.83;;;3.07;;
10825;SDS011;5466;55.898;14.094;2023-12-14T07:36:16;4.00;;;3.30;;
10825;SDS011;5466;55.898;14.094;2023-12-14T07:38:17;3.27;;;2.97;;
10825;SDS011;5466;55.898;14.094;2023-12-14T07:40:18;3.73;;;3.33;;
10825;SDS011;5466;55.898;14.094;2023-12-14T07:42:18;3.97;;;3.00;;
10825;SDS011;5466;55.898;14.094;2023-12-14T07:44:20;3.97;;;3.33;;
10825;SDS011;5466;55.898;14.094;2023-12-14T07:46:20;3.27;;;2.90;;
10825;SDS011;5466;55.898;14.094;2023-12-14T07:48:21;3.43;;;3.13;;
10825;SDS011;5466;55.898;14.094;2023-12-14T07:50:22;3.30;;;2.97;;
10825;SDS011;5466;55.898;14.094;2023-12-14T07:52:22;3.83;;;3.10;;
10825;SDS011;5466;55.898;14.094;2023-12-14T07:54:23;3.80;;;3.37;;
10825;SDS011;5466;55.898;14.094;2023-12-14T07:56:26;4.47;;;3.40;;
10825;SDS011;5466;55.898;14.094;2023-12-14T07:58:28;4.00;;;3.10;;
10825;SDS011;5466;55.898;14.094;2023-12-14T08:00:28;4.47;;;3.17;;
10825;SDS011;5466;55.898;14.094;2023-12-14T08:02:29;4.87;;;3.13;;
10825;SDS011;5466;55.898;14.094;2023-12-14T08:04:30;4.13;;;3.23;;
10825;SDS011;5466;55.898;14.094;2023-12-14T08:06:30;3.47;;;3.17;;
10825;SDS011;5466;55.898;14.094;2023-12-14T08:08:31;3.80;;;3.30;;
10825;SDS011;5466;55.898;14.094;2023-12-14T08:10:31;3.67;;;3.37;;
10825;SDS011;5466;55.898;14.094;2023-12-14T08:12:32;3.57;;;2.90;;
10825;SDS011;5466;55.898;14.094;2023-12-14T08:14:33;3.40;;;3.10;;
10825;SDS011;5466;55.898;14.094;2023-12-14T08:16:34;4.13;;;3.33;;
10825;SDS011;5466;55.898;14.094;2023-12-14T08:18:34;3.90;;;3.50;;
10825;SDS011;5466;55.898;14.094;2023-12-14T08:20:35;3.40;;;3.10;;
10825;SDS011;5466;55.898;14.094;2023-12-14T08:22:36;3.67;;;3.00;;
10825;SDS011;5466;55.898;14.094;2023-12-14T08:24:37;3.27;;;2.97;;
10825;SDS011;5466;55.898;14.094;2023-12-14T08:26:41;3.90;;;3.17;;
10825;SDS011;5466;55.898;14.094;2023-12-14T08:28:42;3.77;;;3.17;;
10825;SDS011;5466;55.898;14.094;2023-12-14T08:30:43;4.23;;;3.37;;
10825;SDS011;5466;55.898;14.094;2023-12-14T08:32:44;4.57;;;2.90;;
10825;SDS011;5466;55.898;14.094;2023-12-14T08:34:44;4.23;;;3.50;;
10825;SDS011;5466;55.898;14.094;2023-12-14T08:36:45;4.27;;;3.10;;
10825;SDS011;5466;55.898;14.094;2023-12-14T08:38:46;4.70;;;3.23;;
10825;SDS011;5466;55.898;14.094;2023-12-14T08:40:46;3.40;;;3.03;;
10825;SDS011;5466;55.898;14.094;2023-12-14T08:42:47;3.97;;;3.07;;
10825;SDS011;5466;55.898;14.094;2023-12-14T08:44:48;3.37;;;3.07;;
10825;SDS011;5466;55.898;14.094;2023-12-14T08:46:49;4.27;;;3.47;;
10825;SDS011;5466;55.898;14.094;2023-12-14T08:48:49;3.10;;;2.60;;
10825;SDS011;5466;55.898;14.094;2023-12-14T08:50:52;4.13;;;3.10;;
10825;SDS011;5466;55.898;14.094;2023-12-14T08:52:54;4.33;;;3.50;;
10825;SDS011;5466;55.898;14.094;2023-12-14T08:54:54;4.07;;;3.37;;
10825;SDS011;5466;55.898;14.094;2023-12-14T08:56:55;3.03;;;2.80;;
10825;SDS011;5466;55.898;14.094;2023-12-14T08:58:56;3.67;;;3.10;;
10825;SDS011;5466;55.898;14.094;2023-12-14T09:00:57;3.67;;;2.90;;
10825;SDS011;5466;55.898;14.094;2023-12-14T09:02:58;3.53;;;3.20;;
10825;SDS011;5466;55.898;14.094;2023-12-14T09:04:58;5.83;;;2.97;;
10825;SDS011;5466;55.898;14.094;2023-12-14T09:06:59;3.23;;;2.90;;
10825;SDS011;5466;55.898;14.094;2023-12-14T09:08:59;3.33;;;2.90;;
10825;SDS011;5466;55.898;14.094;2023-12-14T09:11:00;3.70;;;3.23;;
10825;SDS011;5466;55.898;14.094;2023-12-14T09:13:00;4.50;;;3.40;;
10825;SDS011;5466;55.898;14.094;2023-12-14T09:15:04;3.80;;;3.20;;
10825;SDS011;5466;55.898;14.094;2023-12-14T09:17:05;3.27;;;2.97;;
10825;SDS011;5466;55.898;14.094;2023-12-14T09:19:05;5.03;;;3.63;;
10825;SDS011;5466;55.898;14.094;2023-12-14T09:21:06;3.70;;;3.40;;
10825;SDS011;5466;55.898;14.094;2023-12-14T09:23:07;3.17;;;2.83;;
10825;SDS011;5466;55.898;14.094;2023-12-14T09:25:07;5.27;;;3.37;;
10825;SDS011;5466;55.898;14.094;2023-12-14T09:27:09;3.30;;;3.00;;
10825;SDS011;5466;55.898;14.094;2023-12-14T09:29:09;4.80;;;3.13;;
10825;SDS011;5466;55.898;14.094;2023-12-14T09:31:10;4.00;;;3.03;;
10825;SDS011;5466;55.898;14.094;2023-12-14T09:33:11;3.37;;;3.07;;
10825;SDS011;5466;55.898;14.094;2023-12-14T09:35:11;4.60;;;3.50;;
10825;SDS011;5466;55.898;14.094;2023-12-14T09:37:12;3.23;;;2.93;;
10825;SDS011;5466;55.898;14.094;2023-12-14T09:39:14;3.83;;;3.30;;
10825;SDS011;5466;55.898;14.094;2023-12-14T09:41:15;3.83;;;2.90;;
10825;SDS011;5466;55.898;14.094;2023-12-14T09:43:16;5.57;;;2.90;;
10825;SDS011;5466;55.898;14.094;2023-12-14T09:45:16;4.10;;;3.27;;
10825;SDS011;5466;55.898;14.094;2023-12-14T09:47:17;3.63;;;3.00;;
10825;SDS011;5466;55.898;14.094;2023-12-14T09:49:18;3.47;;;2.93;;
10825;SDS011;5466;55.898;14.094;2023-12-14T09:51:19;3.20;;;2.80;;
10825;SDS011;5466;55.898;14.094;2023-12-14T09:53:20;3.10;;;2.80;;
10825;SDS011;5466;55.898;14.094;2023-12-14T09:55:21;3.40;;;2.97;;
10825;SDS011;5466;55.898;14.094;2023-12-14T09:57:21;3.30;;;2.67;;
10825;SDS011;5466;55.898;14.094;2023-12-14T09:59:23;3.10;;;2.80;;
10825;SDS011;5466;55.898;14.094;2023-12-14T10:01:24;5.33;;;2.50;;
10825;SDS011;5466;55.898;14.094;2023-12-14T10:03:27;3.87;;;3.30;;
10825;SDS011;5466;55.898;14.094;2023-12-14T10:05:28;5.73;;;4.30;;
10825;SDS011;5466;55.898;14.094;2023-12-14T10:07:30;6.40;;;4.80;;
10825;SDS011;5466;55.898;14.094;2023-12-14T10:09:31;5.20;;;4.40;;
10825;SDS011;5466;55.898;14.094;2023-12-14T10:11:32;5.90;;;3.23;;
10825;SDS011;5466;55.898;14.094;2023-12-14T10:13:37;3.20;;;2.90;;
10825;SDS011;5466;55.898;14.094;2023-12-14T10:15:45;3.47;;;3.17;;
10825;SDS011;5466;55.898;14.094;2023-12-14T10:17:48;3.50;;;3.13;;
10825;SDS011;5466;55.898;14.094;2023-12-14T10:19:54;3.30;;;3.00;;
10825;SDS011;5466;55.898;14.094;2023-12-14T10:21:55;3.83;;;2.80;;
10825;SDS011;5466;55.898;14.094;2023-12-14T10:23:56;3.50;;;3.20;;
10825;SDS011;5466;55.898;14.094;2023-12-14T10:25:57;4.10;;;3.27;;
10825;SDS011;5466;55.898;14.094;2023-12-14T10:27:58;4.77;;;2.87;;
10825;SDS011;5466;55.898;14.094;2023-12-14T10:30:01;2.80;;;2.53;;
10825;SDS011;5466;55.898;14.094;2023-12-14T10:32:06;3.40;;;3.00;;
10825;SDS011;5466;55.898;14.094;2023-12-14T10:34:08;3.10;;;2.80;;
10825;SDS011;5466;55.898;14.094;2023-12-14T10:36:09;3.30;;;3.00;;
10825;SDS011;5466;55.898;14.094;2023-12-14T10:38:10;5.37;;;3.30;;
10825;SDS011;5466;55.898;14.094;2023-12-14T10:40:13;4.00;;;3.37;;
10825;SDS011;5466;55.898;14.094;2023-12-14T10:42:14;3.30;;;2.90;;
10825;SDS011;5466;55.898;14.094;2023-12-14T10:44:17;6.53;;;3.30;;
10825;SDS011;5466;55.898;14.094;2023-12-14T10:46:19;3.20;;;2.90;;
10825;SDS011;5466;55.898;14.094;2023-12-14T10:48:20;4.03;;;2.90;;
10825;SDS011;5466;55.898;14.094;2023-12-14T10:50:21;3.47;;;3.17;;
10825;SDS011;5466;55.898;14.094;2023-12-14T10:52:23;5.10;;;3.70;;
10825;SDS011;5466;55.898;14.094;2023-12-14T10:54:26;4.77;;;3.17;;
10825;SDS011;5466;55.898;14.094;2023-12-14T10:56:28;3.27;;;2.80;;
10825;SDS011;5466;55.898;14.094;2023-12-14T10:58:44;4.67;;;3.20;;
10825;SDS011;5466;55.898;14.094;2023-12-14T11:01:01;5.20;;;4.13;;
10825;SDS011;5466;55.898;14.094;2023-12-14T11:03:03;4.67;;;3.47;;
10825;SDS011;5466;55.898;14.094;2023-12-14T11:05:05;3.77;;;3.20;;
10825;SDS011;5466;55.898;14.094;2023-12-14T11:07:10;3.97;;;3.40;;
10825;SDS011;5466;55.898;14.094;2023-12-14T11:09:11;3.80;;;3.20;;
10825;SDS011;5466;55.898;14.094;2023-12-14T11:11:14;3.80;;;3.27;;
10825;SDS011;5466;55.898;14.094;2023-12-14T11:13:20;7.00;;;3.57;;
10825;SDS011;5466;55.898;14.094;2023-12-14T11:15:21;6.50;;;3.20;;
10825;SDS011;5466;55.898;14.094;2023-12-14T11:17:23;4.93;;;3.70;;
10825;SDS011;5466;55.898;14.094;2023-12-14T11:19:25;6.13;;;3.40;;
10825;SDS011;5466;55.898;14.094;2023-12-14T11:21:28;6.53;;;3.70;;
10825;SDS011;5466;55.898;14.094;2023-12-14T11:23:36;5.50;;;3.87;;
10825;SDS011;5466;55.898;14.094;2023-12-14T11:25:41;4.93;;;3.50;;
10825;SDS011;5466;55.898;14.094;2023-12-14T11:27:42;5.47;;;3.07;;
10825;SDS011;5466;55.898;14.094;2023-12-14T11:29:44;3.57;;;3.00;;
10825;SDS011;5466;55.898;14.094;2023-12-14T11:31:46;3.70;;;3.17;;
10825;SDS011;5466;55.898;14.094;2023-12-14T11:33:46;9.67;;;3.43;;
10825;SDS011;5466;55.898;14.094;2023-12-14T11:35:48;3.57;;;3.27;;
10825;SDS011;5466;55.898;14.094;2023-12-14T11:37:50;3.77;;;3.40;;
10825;SDS011;5466;55.898;14.094;2023-12-14T11:39:51;4.60;;;3.50;;
10825;SDS011;5466;55.898;14.094;2023-12-14T11:42:02;3.67;;;3.20;;
10825;SDS011;5466;55.898;14.094;2023-12-14T11:44:04;5.77;;;3.30;;
10825;SDS011;5466;55.898;14.094;2023-12-14T11:46:05;8.10;;;3.50;;
10825;SDS011;5466;55.898;14.094;2023-12-14T11:48:06;3.90;;;3.20;;
10825;SDS011;5466;55.898;14.094;2023-12-14T11:50:11;3.77;;;3.20;;
10825;SDS011;5466;55.898;14.094;2023-12-14T11:52:12;3.40;;;2.90;;
10825;SDS011;5466;55.898;14.094;2023-12-14T11:54:13;6.80;;;3.10;;
10825;SDS011;5466;55.898;14.094;2023-12-14T11:56:14;3.40;;;3.10;;
10825;SDS011;5466;55.898;14.094;2023-12-14T11:58:17;3.77;;;3.23;;
10825;SDS011;5466;55.898;14.094;2023-12-14T12:00:18;5.47;;;3.00;;
10825;SDS011;5466;55.898;14.094;2023-12-14T12:02:23;3.77;;;3.20;;
10825;SDS011;5466;55.898;14.094;2023-12-14T12:04:25;3.90;;;3.00;;
10825;SDS011;5466;55.898;14.094;2023-12-14T12:06:27;5.60;;;3.50;;
10825;SDS011;5466;55.898;14.094;2023-12-14T12:08:27;3.83;;;3.10;;
10825;SDS011;5466;55.898;14.094;2023-12-14T12:10:28;3.47;;;3.00;;